createdAt,value
2022-11-20T00:01:24.697Z,74.38
2022-11-20T00:03:56.104Z,75.04
2022-11-20T00:06:23.905Z,75.11
2022-11-20T00:08:51.183Z,74.97
2022-11-20T00:11:22.774Z,75.19
2022-11-20T00:13:51.206Z,75.32
2022-11-20T00:16:20.425Z,75.27
2022-11-20T00:18:47.703Z,75.30
2022-11-20T00:21:17.789Z,75.22
2022-11-20T00:23:44.612Z,75.61
2022-11-20T00:26:13.977Z,75.64
2022-11-20T00:28:41.196Z,75.95
2022-11-20T00:31:10.894Z,76.21
2022-11-20T00:33:37.499Z,76.65
2022-11-20T00:36:06.205Z,76.72
2022-11-20T00:38:33.502Z,76.82
2022-11-20T00:41:02.371Z,77.03
2022-11-20T00:43:29.072Z,77.11
2022-11-20T00:46:06.114Z,77.05
2022-11-20T00:48:33.132Z,77.13
2022-11-20T00:51:00.109Z,77.13
2022-11-20T00:53:26.774Z,77.22
2022-11-20T00:55:56.917Z,77.05
2022-11-20T00:58:24.722Z,77.21
2022-11-20T01:00:51.753Z,76.81
2022-11-20T01:03:24.031Z,76.92
2022-11-20T01:05:53.422Z,77.28
2022-11-20T01:08:20.018Z,76.88
2022-11-20T01:10:46.611Z,77.17
2022-11-20T01:13:31.887Z,77.64
2022-11-20T01:16:04.276Z,77.88
2022-11-20T01:18:30.859Z,78.27
2022-11-20T01:21:21.393Z,78.18
2022-11-20T01:23:49.498Z,78.45
2022-11-20T01:26:19.739Z,78.61
2022-11-20T01:28:46.387Z,78.29
2022-11-20T01:31:15.082Z,78.48
2022-11-20T01:33:42.856Z,77.94
2022-11-20T01:36:10.348Z,77.78
2022-11-20T01:38:37.323Z,78.08
2022-11-20T01:41:04.304Z,78.18
2022-11-20T01:43:31.008Z,78.77
2022-11-20T01:46:16.719Z,79.20
2022-11-20T01:49:01.887Z,79.76
2022-11-20T01:51:39.364Z,79.54
2022-11-20T01:54:17.365Z,79.41
2022-11-20T01:56:46.147Z,78.99
2022-11-20T01:59:15.173Z,78.60
2022-11-20T02:01:41.837Z,78.73
2022-11-20T02:04:09.880Z,78.25
2022-11-20T02:06:41.499Z,78.47
2022-11-20T02:09:08.086Z,78.41
2022-11-20T02:11:34.680Z,78.75
2022-11-20T02:14:01.372Z,78.23
2022-11-20T02:16:38.102Z,77.78
2022-11-20T02:19:08.961Z,78.03
2022-11-20T02:21:47.218Z,78.12
2022-11-20T02:24:16.309Z,77.75
2022-11-20T02:26:55.559Z,77.99
2022-11-20T02:29:28.348Z,78.39
2022-11-20T02:31:56.345Z,78.28
2022-11-20T02:34:23.080Z,77.82
2022-11-20T02:36:51.190Z,77.92
2022-11-20T02:39:18.194Z,77.81
2022-11-20T02:41:45.658Z,77.98
2022-11-20T02:44:12.287Z,77.96
2022-11-20T02:46:39.046Z,77.95
2022-11-20T02:49:06.273Z,78.07
2022-11-20T02:51:33.460Z,78.22
2022-11-20T02:54:00.163Z,78.20
2022-11-20T02:56:26.937Z,79.00
2022-11-20T02:58:53.663Z,79.36
2022-11-20T03:01:20.337Z,80.01
2022-11-20T03:03:46.922Z,80.08
2022-11-20T03:06:13.511Z,79.84
2022-11-20T03:08:40.123Z,79.94
2022-11-20T03:11:08.086Z,79.84
2022-11-20T03:13:35.186Z,79.79
2022-11-20T03:16:20.086Z,79.59
2022-11-20T03:18:47.142Z,79.55
2022-11-20T03:21:14.667Z,79.33
2022-11-20T03:23:41.400Z,78.95
2022-11-20T03:26:11.923Z,79.12
2022-11-20T03:28:38.696Z,79.28
2022-11-20T03:31:14.514Z,79.21
2022-11-20T03:33:42.466Z,79.70
2022-11-20T03:36:11.960Z,80.15
2022-11-20T03:38:39.267Z,80.51
2022-11-20T03:41:08.497Z,80.81
2022-11-20T03:43:35.540Z,80.54
2022-11-20T03:46:02.265Z,80.65
2022-11-20T03:48:28.955Z,80.42
2022-11-20T03:51:08.996Z,80.21
2022-11-20T03:53:35.702Z,79.79
2022-11-20T03:56:02.383Z,79.94
2022-11-20T03:58:28.976Z,79.70
2022-11-20T04:00:55.523Z,79.61
2022-11-20T04:03:22.248Z,79.55
2022-11-20T04:05:48.825Z,79.41
2022-11-20T04:08:15.399Z,79.60
2022-11-20T04:10:42.056Z,79.87
2022-11-20T04:13:08.675Z,80.50
2022-11-20T04:15:38.317Z,80.35
2022-11-20T04:18:05.349Z,80.52
2022-11-20T04:20:31.926Z,80.71
2022-11-20T04:22:58.463Z,80.92
2022-11-20T04:25:25.058Z,81.02
2022-11-20T04:27:51.674Z,81.26
2022-11-20T04:30:18.304Z,81.66
2022-11-20T04:32:44.885Z,81.66
2022-11-20T04:35:11.473Z,81.91
2022-11-20T04:37:38.075Z,82.04
2022-11-20T04:40:05.118Z,82.26
2022-11-20T04:42:31.898Z,82.23
2022-11-20T04:44:58.704Z,82.38
2022-11-20T04:47:25.518Z,82.03
2022-11-20T04:49:52.250Z,82.30
2022-11-20T04:52:19.269Z,82.02
2022-11-20T04:54:45.908Z,82.30
2022-11-20T04:57:14.769Z,82.16
2022-11-20T04:59:41.534Z,81.79
2022-11-20T05:02:08.444Z,81.56
2022-11-20T05:04:35.026Z,81.73
2022-11-20T05:07:01.685Z,81.93
2022-11-20T05:09:28.338Z,82.10
2022-11-20T05:11:54.928Z,82.28
2022-11-20T05:14:21.526Z,82.50
2022-11-20T05:16:48.153Z,82.85
2022-11-20T05:19:14.840Z,83.50
2022-11-20T05:21:41.473Z,83.76
2022-11-20T05:24:08.192Z,84.01
2022-11-20T05:26:34.787Z,84.19
2022-11-20T05:29:01.576Z,84.00
2022-11-20T05:31:28.668Z,84.25
2022-11-20T05:33:56.525Z,84.52
2022-11-20T05:36:23.106Z,84.86
2022-11-20T05:38:51.213Z,84.43
2022-11-20T05:41:20.041Z,84.61
2022-11-20T05:43:47.769Z,84.25
2022-11-20T05:46:15.881Z,84.56
2022-11-20T05:48:43.910Z,84.41
2022-11-20T05:51:12.685Z,84.57
2022-11-20T05:53:43.749Z,84.83
2022-11-20T05:56:16.469Z,84.87
2022-11-20T05:58:43.004Z,85.13
2022-11-20T06:01:21.048Z,84.91
2022-11-20T06:03:48.784Z,85.18
2022-11-20T06:06:16.516Z,85.40
2022-11-20T06:08:43.551Z,85.30
2022-11-20T06:11:11.700Z,85.47
2022-11-20T06:13:42.013Z,85.29
2022-11-20T06:16:09.862Z,85.26
2022-11-20T06:18:36.513Z,85.13
2022-11-20T06:21:11.138Z,85.12
2022-11-20T06:23:38.105Z,85.23
2022-11-20T06:26:06.940Z,85.13
2022-11-20T06:28:33.780Z,85.13
2022-11-20T06:31:00.759Z,85.34
2022-11-20T06:33:27.928Z,84.93
2022-11-20T06:36:00.955Z,84.96
2022-11-20T06:38:29.789Z,85.54
2022-11-20T06:40:56.823Z,85.23
2022-11-20T06:43:24.006Z,85.27
2022-11-20T06:45:55.113Z,85.52
2022-11-20T06:48:22.096Z,85.59
2022-11-20T06:50:48.799Z,85.59
2022-11-20T06:53:15.564Z,85.64
2022-11-20T06:55:46.750Z,85.63
2022-11-20T06:58:14.715Z,85.78
2022-11-20T07:00:41.575Z,85.98
2022-11-20T07:03:09.904Z,85.76
2022-11-20T07:05:36.841Z,85.78
2022-11-20T07:08:04.270Z,85.53
2022-11-20T07:10:30.842Z,85.46
2022-11-20T07:12:57.579Z,85.62
2022-11-20T07:15:25.169Z,85.58
2022-11-20T07:17:51.911Z,85.80
2022-11-20T07:20:18.651Z,86.12
2022-11-20T07:22:45.417Z,86.10
2022-11-20T07:25:12.073Z,85.96
2022-11-20T07:27:38.686Z,85.95
2022-11-20T07:30:05.794Z,86.00
2022-11-20T07:32:32.410Z,86.09
2022-11-20T07:34:59.097Z,86.12
2022-11-20T07:37:25.670Z,85.71
2022-11-20T07:39:52.243Z,85.92
2022-11-20T07:42:18.825Z,85.77
2022-11-20T07:44:45.402Z,86.04
2022-11-20T07:47:11.997Z,86.10
2022-11-20T07:49:38.540Z,86.14
2022-11-20T07:52:05.554Z,86.30
2022-11-20T07:54:32.944Z,86.31
2022-11-20T07:56:59.508Z,86.21
2022-11-20T07:59:26.072Z,85.88
2022-11-20T08:01:52.832Z,85.78
2022-11-20T08:04:19.529Z,85.71
2022-11-20T08:06:46.377Z,85.67
2022-11-20T08:09:12.958Z,85.28
2022-11-20T08:11:58.283Z,85.02
2022-11-20T08:14:24.896Z,85.10
2022-11-20T08:16:51.486Z,85.06
2022-11-20T08:19:19.415Z,85.10
2022-11-20T08:21:46.601Z,85.00
2022-11-20T08:24:13.308Z,85.22
2022-11-20T08:26:40.754Z,85.28
2022-11-20T08:29:07.427Z,85.20
2022-11-20T08:31:34.493Z,84.86
2022-11-20T08:34:03.871Z,85.01
2022-11-20T08:36:35.134Z,85.14
2022-11-20T08:39:02.279Z,84.91
2022-11-20T08:41:31.994Z,85.05
2022-11-20T08:44:01.067Z,84.72
2022-11-20T08:46:38.381Z,84.62
2022-11-20T08:49:06.089Z,83.92
2022-11-20T08:51:33.604Z,83.78
2022-11-20T08:54:00.229Z,83.72
2022-11-20T08:56:26.910Z,83.41
2022-11-20T09:01:40.614Z,82.85
2022-11-20T09:04:07.287Z,82.41
2022-11-20T09:06:33.912Z,82.09
2022-11-20T09:09:05.120Z,81.86
2022-11-20T09:11:33.446Z,81.54
2022-11-20T09:14:01.089Z,81.50
2022-11-20T09:16:27.652Z,81.48
2022-11-20T09:19:13.554Z,81.70
2022-11-20T09:21:40.858Z,81.95
2022-11-20T09:24:07.707Z,82.01
2022-11-20T09:26:34.349Z,82.43
2022-11-20T09:29:00.955Z,82.65
2022-11-20T09:31:27.698Z,82.67
2022-11-20T09:33:54.484Z,82.42
2022-11-20T09:36:21.179Z,82.20
2022-11-20T09:38:48.051Z,82.22
2022-11-20T09:41:37.618Z,81.98
2022-11-20T09:44:33.822Z,81.94
2022-11-20T09:47:17.084Z,82.06
2022-11-20T09:50:13.496Z,82.19
2022-11-20T09:53:02.639Z,81.90
2022-11-20T09:55:30.468Z,81.84
2022-11-20T09:57:58.034Z,81.57
2022-11-20T10:00:24.798Z,81.63
2022-11-20T10:02:57.112Z,81.58
2022-11-20T10:05:43.240Z,81.79
2022-11-20T10:08:26.965Z,81.82
2022-11-20T10:11:14.270Z,81.47
2022-11-20T10:13:40.875Z,81.58
2022-11-20T10:16:20.246Z,81.58
2022-11-20T10:18:56.314Z,81.14
2022-11-20T10:21:33.974Z,81.26
2022-11-20T10:24:06.704Z,80.95
2022-11-20T10:26:59.497Z,80.73
2022-11-20T10:29:34.868Z,81.06
2022-11-20T10:32:04.779Z,81.15
2022-11-20T10:34:52.404Z,81.45
2022-11-20T10:37:28.627Z,81.78
2022-11-20T10:40:12.957Z,82.12
2022-11-20T10:42:44.862Z,82.13
2022-11-20T10:45:26.796Z,82.52
2022-11-20T10:48:32.394Z,82.61
2022-11-20T10:51:49.193Z,82.43
2022-11-20T10:54:31.051Z,82.26
2022-11-20T10:57:03.475Z,82.13
2022-11-20T10:59:39.183Z,81.90
2022-11-20T11:02:25.748Z,81.82
2022-11-20T11:04:56.034Z,81.68
2022-11-20T11:07:25.931Z,81.91
2022-11-20T11:09:57.275Z,81.64
2022-11-20T11:12:26.614Z,81.77
2022-11-20T11:14:54.992Z,81.65
2022-11-20T11:17:33.119Z,81.83
2022-11-20T11:20:06.614Z,81.77
2022-11-20T11:22:35.598Z,81.82
2022-11-20T11:25:02.385Z,82.12
2022-11-20T11:27:29.139Z,82.08
2022-11-20T11:30:15.237Z,82.22
2022-11-20T11:32:41.877Z,82.44
2022-11-20T11:35:20.721Z,82.58
2022-11-20T11:37:48.283Z,82.82
2022-11-20T11:40:30.597Z,83.08
2022-11-20T11:43:00.390Z,82.80
2022-11-20T11:45:33.068Z,83.10
2022-11-20T11:48:01.836Z,82.97
2022-11-20T11:50:29.803Z,83.11
2022-11-20T11:53:08.626Z,83.18
2022-11-20T11:55:46.248Z,83.22
2022-11-20T11:58:34.472Z,83.10
2022-11-20T12:01:22.942Z,83.47
2022-11-20T12:04:01.454Z,83.70
2022-11-20T12:06:30.933Z,83.98
2022-11-20T12:09:00.949Z,83.61
2022-11-20T12:11:34.720Z,83.80
2022-11-20T12:14:12.719Z,83.79
2022-11-20T12:16:40.220Z,83.77
2022-11-20T12:19:14.858Z,83.46
2022-11-20T12:21:47.632Z,83.38
2022-11-20T12:24:14.176Z,84.00
2022-11-20T12:26:50.613Z,83.67
2022-11-20T12:29:26.684Z,83.43
2022-11-20T12:32:12.330Z,83.61
2022-11-20T12:34:46.542Z,83.58
2022-11-20T12:37:23.281Z,83.32
2022-11-20T12:39:51.830Z,83.26
2022-11-20T12:42:58.900Z,83.48
2022-11-20T12:45:57.569Z,83.60
2022-11-20T12:48:36.576Z,83.13
2022-11-20T12:51:19.381Z,83.25
2022-11-20T12:54:28.157Z,82.96
2022-11-20T12:57:21.143Z,83.00
2022-11-20T13:00:12.416Z,82.74
2022-11-20T13:02:57.204Z,82.81
2022-11-20T13:05:44.891Z,82.74
2022-11-20T13:08:35.896Z,82.96
2022-11-20T13:11:24.316Z,82.93
2022-11-20T13:14:00.127Z,83.34
2022-11-20T13:16:33.163Z,83.50
2022-11-20T13:19:04.068Z,83.64
2022-11-20T13:21:42.628Z,83.94
2022-11-20T13:24:22.509Z,84.25
2022-11-20T13:26:49.286Z,84.34
2022-11-20T13:29:20.149Z,84.60
2022-11-20T13:31:48.388Z,84.95
2022-11-20T13:34:27.075Z,85.45
2022-11-20T13:36:58.725Z,86.53
2022-11-20T13:39:30.719Z,86.72
2022-11-20T13:41:59.799Z,87.04
2022-11-20T13:44:31.862Z,87.51
2022-11-20T13:46:58.503Z,87.87
2022-11-20T13:49:34.917Z,88.42
2022-11-20T13:52:32.435Z,88.66
2022-11-20T13:55:01.993Z,89.27
2022-11-20T13:57:46.928Z,89.63
2022-11-20T14:00:19.316Z,90.00
2022-11-20T14:03:07.740Z,89.98
2022-11-20T14:05:37.596Z,90.51
2022-11-20T14:08:06.674Z,90.67
2022-11-20T14:10:33.410Z,91.27
2022-11-20T14:13:11.434Z,91.31
2022-11-20T14:15:44.677Z,91.73
2022-11-20T14:18:20.247Z,91.76
2022-11-20T14:20:47.008Z,91.90
2022-11-20T14:23:13.767Z,92.28
2022-11-20T14:25:44.183Z,92.60
2022-11-20T14:28:26.013Z,92.82
2022-11-20T14:30:53.088Z,93.18
2022-11-20T14:33:22.126Z,93.15
2022-11-20T14:35:51.033Z,93.32
2022-11-20T14:38:21.307Z,93.47
2022-11-20T14:40:48.033Z,93.79
2022-11-20T14:43:29.348Z,93.96
2022-11-20T14:46:08.416Z,94.19
2022-11-20T14:48:56.757Z,94.58
2022-11-20T14:51:37.917Z,94.87
2022-11-20T14:54:20.305Z,95.12
2022-11-20T14:56:58.074Z,95.15
2022-11-20T14:59:26.057Z,95.36
2022-11-20T15:01:57.367Z,95.36
2022-11-20T15:04:24.096Z,95.35
2022-11-20T15:06:56.920Z,95.64
2022-11-20T15:09:24.557Z,95.76
2022-11-20T15:11:59.768Z,95.74
2022-11-20T15:14:33.707Z,95.92
2022-11-20T15:17:00.541Z,95.98
2022-11-20T15:19:28.052Z,96.02
2022-11-20T15:21:54.742Z,96.30
2022-11-20T15:24:27.374Z,96.14
2022-11-20T15:26:54.010Z,96.49
2022-11-20T15:29:22.064Z,96.40
2022-11-20T15:31:48.717Z,96.76
2022-11-20T15:34:16.527Z,96.51
2022-11-20T15:36:44.029Z,96.54
2022-11-20T15:39:12.619Z,96.59
2022-11-20T15:41:40.048Z,96.89
2022-11-20T15:44:06.911Z,96.90
2022-11-20T15:46:39.467Z,97.17
2022-11-20T15:49:07.088Z,97.26
2022-11-20T15:51:39.049Z,97.27
2022-11-20T15:54:16.676Z,97.56
2022-11-20T15:56:43.287Z,97.67
2022-11-20T15:59:09.948Z,97.86
2022-11-20T16:01:36.992Z,97.96
2022-11-20T16:04:03.795Z,98.48
2022-11-20T16:06:30.405Z,98.62
2022-11-20T16:08:57.001Z,98.96
2022-11-20T16:11:23.640Z,99.10
2022-11-20T16:14:08.844Z,99.32
2022-11-20T16:16:37.959Z,99.24
2022-11-20T16:19:04.961Z,99.62
2022-11-20T16:21:32.204Z,99.67
2022-11-20T16:24:00.300Z,99.74
2022-11-20T16:26:27.093Z,99.91
2022-11-20T16:28:54.084Z,100.00
2022-11-20T16:31:21.223Z,100.00
2022-11-20T16:33:55.526Z,100.00
2022-11-20T16:36:23.718Z,100.00
2022-11-20T16:38:54.706Z,100.00
2022-11-20T16:41:21.758Z,100.00
2022-11-20T16:43:53.371Z,100.00
2022-11-20T16:46:22.489Z,100.00
2022-11-20T16:48:57.519Z,100.00
2022-11-20T16:51:25.242Z,100.00
2022-11-20T16:53:52.381Z,100.00
2022-11-20T16:56:21.401Z,100.00
2022-11-20T16:58:49.549Z,100.00
2022-11-20T17:01:21.033Z,100.00
2022-11-20T17:03:54.936Z,100.00
2022-11-20T17:06:23.895Z,100.00
2022-11-20T17:08:50.614Z,100.00
2022-11-20T17:11:18.933Z,100.00
2022-11-20T17:13:46.555Z,100.00
2022-11-20T17:16:18.836Z,100.00
2022-11-20T17:18:45.599Z,100.00
2022-11-20T17:21:13.040Z,100.00
2022-11-20T17:23:41.707Z,100.00
2022-11-20T17:26:14.462Z,100.00
2022-11-20T17:28:41.641Z,100.00
2022-11-20T17:31:16.323Z,100.00
2022-11-20T17:33:45.276Z,100.00
2022-11-20T17:36:19.158Z,100.00
2022-11-20T17:38:46.231Z,100.00
2022-11-20T17:41:16.314Z,100.00
2022-11-20T17:43:43.385Z,100.00
2022-11-20T17:46:18.434Z,100.00
2022-11-20T17:48:45.986Z,100.00
2022-11-20T17:51:14.876Z,100.00
2022-11-20T17:53:43.206Z,100.00
2022-11-20T17:56:28.878Z,100.00
2022-11-20T17:58:56.418Z,100.00
2022-11-20T18:01:23.245Z,100.00
2022-11-20T18:03:50.349Z,100.00
2022-11-20T18:06:18.077Z,100.00
2022-11-20T18:08:44.969Z,100.00
2022-11-20T18:11:13.787Z,100.00
2022-11-20T18:14:00.175Z,100.00
2022-11-20T18:16:27.916Z,100.00
2022-11-20T18:18:58.755Z,100.00
2022-11-20T18:21:27.570Z,100.00
2022-11-20T18:23:58.534Z,100.00
2022-11-20T18:26:25.855Z,100.00
2022-11-20T18:28:53.003Z,100.00
2022-11-20T18:31:20.045Z,100.00
2022-11-20T18:33:47.000Z,100.00
2022-11-20T18:36:17.240Z,100.00
2022-11-20T18:38:45.176Z,100.00
2022-11-20T18:41:36.021Z,100.00
2022-11-20T18:44:23.371Z,100.00
2022-11-20T18:46:50.283Z,100.00
2022-11-20T18:49:17.072Z,100.00
2022-11-20T18:51:47.147Z,100.00
2022-11-20T18:54:14.227Z,100.00
2022-11-20T18:56:41.112Z,100.00
2022-11-20T18:59:09.806Z,100.00
2022-11-20T19:01:37.594Z,100.00
2022-11-20T19:04:09.210Z,100.00
2022-11-20T19:06:49.174Z,100.00
2022-11-20T19:09:16.213Z,100.00
2022-11-20T19:11:45.152Z,100.00
2022-11-20T19:14:11.882Z,100.00
2022-11-20T19:16:38.493Z,100.00
2022-11-20T19:19:06.576Z,100.00
2022-11-20T19:21:33.512Z,100.00
2022-11-20T19:24:05.076Z,100.00
2022-11-20T19:26:31.940Z,100.00
2022-11-20T19:28:58.891Z,100.00
2022-11-20T19:31:29.489Z,100.00
2022-11-20T19:34:02.258Z,100.00
2022-11-20T19:36:33.924Z,100.00
2022-11-20T19:39:04.033Z,100.00
2022-11-20T19:41:31.702Z,100.00
2022-11-20T19:44:05.073Z,100.00
2022-11-20T19:46:34.378Z,100.00
2022-11-20T19:49:01.522Z,100.00
2022-11-20T19:51:30.280Z,100.00
2022-11-20T19:54:03.614Z,100.00
2022-11-20T19:56:31.845Z,100.00
2022-11-20T19:59:01.956Z,100.00
2022-11-20T20:01:31.821Z,100.00
2022-11-20T20:04:05.585Z,100.00
2022-11-20T20:06:35.279Z,100.00
2022-11-20T20:09:08.034Z,100.00
2022-11-20T20:11:36.077Z,100.00
2022-11-20T20:14:08.590Z,100.00
2022-11-20T20:16:36.420Z,100.00
2022-11-20T20:19:04.525Z,100.00
2022-11-20T20:21:35.560Z,100.00
2022-11-20T20:24:05.742Z,100.00
2022-11-20T20:26:33.447Z,100.00
2022-11-20T20:29:01.665Z,100.00
2022-11-20T20:31:32.531Z,100.00
2022-11-20T20:33:59.423Z,100.00
2022-11-20T20:36:26.659Z,100.00
2022-11-20T20:38:55.153Z,100.00
2022-11-20T20:41:23.814Z,100.00
2022-11-20T20:44:09.695Z,100.00
2022-11-20T20:46:36.427Z,100.00
2022-11-20T20:49:03.318Z,100.00
2022-11-20T20:51:30.213Z,100.00
2022-11-20T20:53:57.433Z,100.00
2022-11-20T20:56:24.481Z,100.00
2022-11-20T20:58:53.668Z,100.00
2022-11-20T21:01:21.327Z,100.00
2022-11-20T21:03:50.016Z,100.00
2022-11-20T21:06:16.894Z,100.00
2022-11-20T21:08:44.582Z,100.00
2022-11-20T21:11:14.370Z,100.00
2022-11-20T21:13:43.090Z,100.00
2022-11-20T21:16:11.266Z,100.00
2022-11-20T21:18:38.302Z,100.00
2022-11-20T21:21:28.438Z,100.00
2022-11-20T21:23:55.225Z,100.00
2022-11-20T21:26:22.308Z,100.00
2022-11-20T21:28:52.313Z,100.00
2022-11-20T21:31:23.688Z,100.00
2022-11-20T21:33:53.014Z,100.00
2022-11-20T21:36:22.090Z,100.00
2022-11-20T21:38:50.612Z,100.00
2022-11-20T21:41:17.203Z,100.00
2022-11-20T21:43:44.310Z,100.00
2022-11-20T21:46:12.930Z,100.00
2022-11-20T21:48:41.236Z,100.00
2022-11-20T21:51:09.521Z,100.00
2022-11-20T21:53:36.715Z,100.00
2022-11-20T21:56:07.150Z,100.00
2022-11-20T21:58:34.882Z,100.00
2022-11-20T22:01:08.487Z,100.00
2022-11-20T22:03:35.714Z,100.00
2022-11-20T22:06:02.320Z,100.00
2022-11-20T22:08:29.023Z,100.00
2022-11-20T22:11:01.120Z,100.00
2022-11-20T22:13:46.879Z,100.00
2022-11-20T22:16:14.143Z,100.00
2022-11-20T22:18:51.136Z,100.00
2022-11-20T22:21:19.582Z,100.00
2022-11-20T22:23:46.194Z,100.00
2022-11-20T22:26:15.373Z,100.00
2022-11-20T22:28:42.308Z,100.00
2022-11-20T22:31:10.664Z,100.00
2022-11-20T22:33:38.670Z,100.00
2022-11-20T22:36:10.760Z,100.00
2022-11-20T22:38:39.623Z,100.00
2022-11-20T22:41:16.747Z,100.00
2022-11-20T22:43:44.662Z,100.00
2022-11-20T22:46:12.307Z,100.00
2022-11-20T22:48:41.277Z,100.00
2022-11-20T22:51:09.152Z,100.00
2022-11-20T22:53:36.129Z,100.00
2022-11-20T22:56:03.434Z,100.00
2022-11-20T22:58:30.951Z,100.00
2022-11-20T23:01:16.616Z,100.00
2022-11-20T23:03:45.217Z,100.00
2022-11-20T23:06:12.602Z,100.00
2022-11-20T23:08:40.612Z,100.00
2022-11-20T23:11:09.768Z,100.00
2022-11-20T23:13:36.531Z,100.00
2022-11-20T23:16:14.773Z,100.00
2022-11-20T23:18:42.003Z,100.00
2022-11-20T23:21:10.693Z,100.00
2022-11-20T23:23:37.525Z,100.00
2022-11-20T23:26:06.154Z,100.00
2022-11-20T23:28:33.053Z,100.00
2022-11-20T23:30:59.838Z,100.00
2022-11-20T23:33:26.635Z,100.00
2022-11-20T23:35:53.577Z,100.00
2022-11-20T23:38:20.200Z,100.00
2022-11-20T23:40:50.857Z,100.00
2022-11-20T23:43:18.548Z,100.00
2022-11-20T23:45:53.073Z,100.00
2022-11-20T23:48:20.762Z,100.00
2022-11-20T23:50:47.503Z,100.00
2022-11-20T23:53:15.009Z,100.00
2022-11-20T23:55:46.381Z,100.00
2022-11-20T23:58:14.014Z,100.00
